createdAt,value
2019-03-27T00:01:28.071Z,11.97
2019-03-27T00:04:08.087Z,12.80
2019-03-27T00:06:49.315Z,10.17
2019-03-27T00:09:30.501Z,12.43
2019-03-27T00:12:11.024Z,14.43
2019-03-27T00:14:51.609Z,11.87
2019-03-27T00:17:27.332Z,12.53
2019-03-27T00:23:29.605Z,11.73
2019-03-27T00:26:11.683Z,11.07
2019-03-27T00:28:49.396Z,12.07
2019-03-27T00:31:27.157Z,11.00
2019-03-27T00:34:02.375Z,12.00
2019-03-27T00:36:45.762Z,9.53
2019-03-27T00:39:52.940Z,12.30
2019-03-27T00:42:36.791Z,14.53
2019-03-27T00:45:26.362Z,10.10
2019-03-27T00:48:04.924Z,12.00
2019-03-27T00:50:43.257Z,11.27
2019-03-27T00:53:17.673Z,12.70
2019-03-27T00:55:58.103Z,13.13
2019-03-27T00:58:31.558Z,12.17
2019-03-27T01:01:21.154Z,11.37
2019-03-27T01:03:55.206Z,10.43
2019-03-27T01:06:32.289Z,12.50
2019-03-27T01:09:27.058Z,13.40
2019-03-27T01:11:54.855Z,12.07
2019-03-27T01:14:33.491Z,13.33
2019-03-27T01:17:20.499Z,12.03
2019-03-27T01:20:06.803Z,14.57
2019-03-27T01:22:45.187Z,12.90
2019-03-27T01:25:23.896Z,12.40
2019-03-27T01:28:03.760Z,12.58
2019-03-27T01:30:40.687Z,13.67
2019-03-27T01:33:18.827Z,13.80
2019-03-27T01:36:00.232Z,13.13
2019-03-27T01:38:45.216Z,14.67
2019-03-27T01:41:21.770Z,14.07
2019-03-27T01:44:34.985Z,12.77
2019-03-27T01:47:15.392Z,14.10
2019-03-27T01:49:47.549Z,14.30
2019-03-27T01:52:26.315Z,13.70
2019-03-27T01:54:58.591Z,12.77
2019-03-27T01:57:43.791Z,13.87
2019-03-27T02:00:10.505Z,13.17
2019-03-27T02:02:42.147Z,14.50
2019-03-27T02:05:34.397Z,16.23
2019-03-27T02:08:10.290Z,14.63
2019-03-27T02:10:48.840Z,15.50
2019-03-27T02:13:22.576Z,14.63
2019-03-27T02:16:06.346Z,17.77
2019-03-27T02:18:27.200Z,17.83
2019-03-27T02:21:02.097Z,17.27
2019-03-27T02:23:40.292Z,16.90
2019-03-27T02:26:15.292Z,16.50
2019-03-27T02:28:49.438Z,16.60
2019-03-27T02:31:19.869Z,17.30
2019-03-27T02:33:55.464Z,16.97
2019-03-27T02:36:31.731Z,15.70
2019-03-27T02:39:06.574Z,17.40
2019-03-27T02:41:41.384Z,18.40
2019-03-27T02:44:13.975Z,17.00
2019-03-27T02:46:46.745Z,16.07
2019-03-27T02:49:23.661Z,17.93
2019-03-27T02:51:55.033Z,18.50
2019-03-27T02:54:29.320Z,18.10
2019-03-27T02:57:01.268Z,16.83
2019-03-27T02:59:34.522Z,18.47
2019-03-27T03:02:09.980Z,17.57
2019-03-27T03:04:47.226Z,16.70
2019-03-27T03:07:22.001Z,19.37
2019-03-27T03:09:53.588Z,19.20
2019-03-27T03:12:34.687Z,17.40
2019-03-27T03:15:13.502Z,21.40
2019-03-27T03:17:46.081Z,17.27
2019-03-27T03:20:18.897Z,17.70
2019-03-27T03:23:12.624Z,17.33
2019-03-27T03:25:50.146Z,18.63
2019-03-27T03:28:36.558Z,18.27
2019-03-27T03:31:20.696Z,17.80
2019-03-27T03:33:55.726Z,17.93
2019-03-27T03:36:35.219Z,19.10
2019-03-27T03:39:08.026Z,20.13
2019-03-27T03:41:45.640Z,16.77
2019-03-27T03:44:21.487Z,15.90
2019-03-27T03:47:00.427Z,16.93
2019-03-27T03:49:35.270Z,17.20
2019-03-27T03:52:07.755Z,15.57
2019-03-27T03:54:44.692Z,19.13
2019-03-27T03:57:17.675Z,19.60
2019-03-27T03:59:53.372Z,18.43
2019-03-27T04:02:31.267Z,17.80
2019-03-27T04:05:08.082Z,19.10
2019-03-27T04:07:39.702Z,18.50
2019-03-27T04:10:17.525Z,18.80
2019-03-27T04:12:50.088Z,18.63
2019-03-27T04:15:24.644Z,18.23
2019-03-27T04:18:11.442Z,19.83
2019-03-27T04:20:49.533Z,19.60
2019-03-27T04:23:26.510Z,17.80
2019-03-27T04:26:09.485Z,20.60
2019-03-27T04:28:47.723Z,16.57
2019-03-27T04:31:20.339Z,21.37
2019-03-27T04:33:54.366Z,19.10
2019-03-27T04:36:29.524Z,21.27
2019-03-27T04:39:03.698Z,20.00
2019-03-27T04:41:41.205Z,21.50
2019-03-27T04:44:19.926Z,20.10
2019-03-27T04:47:08.501Z,18.80
2019-03-27T04:49:31.218Z,19.77
2019-03-27T04:52:25.383Z,22.20
2019-03-27T04:54:57.924Z,20.77
2019-03-27T04:57:34.756Z,21.60
2019-03-27T05:00:12.826Z,22.50
2019-03-27T05:02:48.086Z,19.90
2019-03-27T05:05:29.717Z,21.77
2019-03-27T05:08:08.040Z,21.13
2019-03-27T05:10:42.321Z,21.60
2019-03-27T05:13:29.263Z,26.90
2019-03-27T05:16:16.705Z,20.93
2019-03-27T05:18:51.840Z,19.93
2019-03-27T05:21:30.441Z,23.87
2019-03-27T05:24:11.097Z,23.30
2019-03-27T05:26:46.584Z,22.67
2019-03-27T05:29:29.333Z,25.53
2019-03-27T05:32:04.672Z,25.90
2019-03-27T05:34:40.037Z,25.70
2019-03-27T05:37:33.789Z,23.70
2019-03-27T05:40:16.088Z,25.00
2019-03-27T05:43:00.853Z,20.67
2019-03-27T05:45:31.125Z,21.70
2019-03-27T05:48:30.102Z,19.30
2019-03-27T05:51:30.497Z,22.43
2019-03-27T05:54:21.622Z,20.63
2019-03-27T05:56:54.614Z,21.70
2019-03-27T05:59:50.917Z,19.17
2019-03-27T06:02:34.008Z,20.70
2019-03-27T06:05:20.818Z,20.27
2019-03-27T06:08:33.328Z,22.20
2019-03-27T06:12:02.528Z,20.37
2019-03-27T06:15:18.152Z,21.03
2019-03-27T06:18:19.641Z,18.97
2019-03-27T06:21:16.087Z,17.23
2019-03-27T06:24:29.854Z,20.13
2019-03-27T06:27:27.017Z,18.70
2019-03-27T06:30:08.408Z,22.90
2019-03-27T06:33:15.695Z,22.20
2019-03-27T06:36:11.610Z,19.07
2019-03-27T06:39:29.076Z,19.40
2019-03-27T06:42:08.639Z,17.90
2019-03-27T06:45:31.453Z,18.07
2019-03-27T06:48:27.248Z,17.70
2019-03-27T06:51:13.333Z,17.67
2019-03-27T06:53:47.930Z,16.80
2019-03-27T06:56:37.785Z,18.37
2019-03-27T06:59:14.646Z,18.17
2019-03-27T07:01:59.103Z,15.80
2019-03-27T07:04:51.332Z,16.67
2019-03-27T07:07:36.068Z,15.63
2019-03-27T07:10:28.778Z,13.00
2019-03-27T07:13:28.411Z,13.40
2019-03-27T07:16:21.489Z,14.50
2019-03-27T07:19:23.222Z,16.97
2019-03-27T07:22:18.266Z,15.77
2019-03-27T07:24:57.600Z,15.83
2019-03-27T07:27:58.382Z,16.30
2019-03-27T07:30:40.809Z,16.97
2019-03-27T07:33:17.790Z,17.40
2019-03-27T07:35:54.263Z,17.20
2019-03-27T07:38:28.378Z,15.00
2019-03-27T07:41:17.815Z,12.90
2019-03-27T07:43:56.083Z,13.20
2019-03-27T07:46:40.356Z,13.10
2019-03-27T07:49:24.155Z,13.70
2019-03-27T07:52:17.205Z,13.57
2019-03-27T07:55:44.427Z,14.17
2019-03-27T07:57:49.722Z,12.77
2019-03-27T08:00:25.767Z,13.50
2019-03-27T08:03:18.228Z,13.23
2019-03-27T08:06:03.645Z,14.23
2019-03-27T08:09:39.950Z,14.07
2019-03-27T08:12:18.228Z,18.03
2019-03-27T08:15:19.616Z,17.53
2019-03-27T08:18:44.954Z,19.50
2019-03-27T08:22:27.660Z,21.10
2019-03-27T08:25:50.659Z,22.40
2019-03-27T08:28:50.586Z,21.47
2019-03-27T08:31:37.103Z,25.37
2019-03-27T08:34:25.555Z,25.87
2019-03-27T08:37:07.455Z,24.13
2019-03-27T08:39:49.542Z,25.40
2019-03-27T08:42:49.072Z,25.07
2019-03-27T08:45:46.134Z,26.00
2019-03-27T08:48:39.604Z,26.20
2019-03-27T08:52:08.123Z,28.43
2019-03-27T08:55:17.730Z,28.43
2019-03-27T08:58:11.438Z,35.20
2019-03-27T09:00:58.142Z,33.63
2019-03-27T09:04:11.201Z,20.53
2019-03-27T09:06:52.076Z,19.13
2019-03-27T09:09:44.949Z,16.70
2019-03-27T09:12:46.479Z,20.23
2019-03-27T09:15:34.801Z,22.90
2019-03-27T09:18:26.364Z,21.97
2019-03-27T09:21:35.547Z,17.10
2019-03-27T09:24:35.485Z,16.70
2019-03-27T09:27:14.668Z,17.03
2019-03-27T09:29:57.741Z,16.43
2019-03-27T09:32:42.690Z,15.50
2019-03-27T09:35:43.124Z,16.63
2019-03-27T09:38:58.598Z,14.87
2019-03-27T09:42:20.302Z,13.20
2019-03-27T09:45:47.266Z,14.17
2019-03-27T09:48:47.332Z,15.57
2019-03-27T09:51:54.825Z,15.70
2019-03-27T09:55:05.669Z,15.50
2019-03-27T09:59:06.217Z,16.00
2019-03-27T10:01:28.750Z,16.50
2019-03-27T10:04:27.028Z,14.80
2019-03-27T10:07:54.434Z,8.47
2019-03-27T10:10:39.702Z,12.97
2019-03-27T10:13:59.361Z,14.03
2019-03-27T10:20:16.667Z,13.67
2019-03-27T10:23:23.377Z,12.40
2019-03-27T10:26:15.961Z,12.13
2019-03-27T10:29:25.235Z,17.57
2019-03-27T10:32:41.568Z,11.93
2019-03-27T10:35:48.303Z,12.65
2019-03-27T10:38:41.464Z,12.13
2019-03-27T10:41:13.630Z,9.73
2019-03-27T10:44:29.203Z,9.50
2019-03-27T10:47:20.220Z,10.47
2019-03-27T10:50:37.358Z,10.90
2019-03-27T10:57:05.616Z,9.70
2019-03-27T11:00:02.618Z,7.90
2019-03-27T11:03:06.072Z,8.83
2019-03-27T11:05:53.808Z,7.30
2019-03-27T11:08:41.479Z,7.30
2019-03-27T11:11:24.647Z,6.87
2019-03-27T11:18:23.606Z,6.07
2019-03-27T11:21:43.805Z,6.60
2019-03-27T11:25:22.991Z,6.63
2019-03-27T11:28:30.031Z,5.83
2019-03-27T11:34:58.803Z,5.10
2019-03-27T11:53:41.377Z,3.10
2019-03-27T11:55:03.884Z,3.60
2019-03-27T12:06:01.604Z,3.57
2019-03-27T12:12:25.345Z,4.10
2019-03-27T12:15:58.212Z,4.00
2019-03-27T12:19:21.081Z,4.27
2019-03-27T12:22:41.185Z,4.80
2019-03-27T12:26:09.132Z,5.57
2019-03-27T12:37:04.181Z,5.60
2019-03-27T12:40:43.185Z,5.60
2019-03-27T12:44:02.551Z,6.23
2019-03-27T12:47:06.029Z,5.50
2019-03-27T12:50:28.442Z,6.37
2019-03-27T12:54:03.325Z,5.30
2019-03-27T12:56:44.219Z,5.20
2019-03-27T12:59:50.265Z,4.70
2019-03-27T13:02:34.037Z,4.23
2019-03-27T13:05:39.987Z,4.50
2019-03-27T13:16:12.356Z,4.33
2019-03-27T13:19:02.056Z,4.10
2019-03-27T13:21:59.035Z,4.40
2019-03-27T13:25:05.781Z,4.83
2019-03-27T13:32:21.738Z,6.57
2019-03-27T13:35:39.318Z,5.83
2019-03-27T13:38:43.583Z,6.97
2019-03-27T13:41:46.654Z,5.67
2019-03-27T13:44:42.727Z,5.60
2019-03-27T13:47:47.478Z,4.78
2019-03-27T13:53:37.156Z,5.10
2019-03-27T13:56:26.654Z,4.97
2019-03-27T13:59:09.877Z,4.67
2019-03-27T14:02:07.177Z,5.73
2019-03-27T14:05:21.957Z,4.20
2019-03-27T14:08:07.303Z,6.93
2019-03-27T14:11:11.587Z,5.77
2019-03-27T14:17:52.506Z,6.37
2019-03-27T14:21:00.784Z,5.13
2019-03-27T14:23:52.860Z,4.57
2019-03-27T14:27:25.998Z,5.67
2019-03-27T14:31:07.099Z,5.97
2019-03-27T14:34:09.155Z,5.35
2019-03-27T14:38:11.047Z,5.30
2019-03-27T14:45:18.146Z,5.27
2019-03-27T14:48:55.655Z,5.20
2019-03-27T14:52:14.945Z,8.95
2019-03-27T15:03:40.236Z,5.67
2019-03-27T15:07:17.227Z,7.50
2019-03-27T15:10:29.930Z,6.03
2019-03-27T15:17:29.665Z,5.50
2019-03-27T15:46:18.501Z,10.00
2019-03-27T15:53:38.539Z,6.10
2019-03-27T16:00:19.103Z,5.53
2019-03-27T16:07:40.323Z,5.97
2019-03-27T16:46:13.687Z,6.13
2019-03-27T19:11:03.310Z,8.70
2019-03-27T19:36:26.580Z,9.33
2019-03-27T19:43:49.494Z,7.47
2019-03-27T19:47:16.714Z,6.30
2019-03-27T20:13:54.573Z,9.60
2019-03-27T20:29:08.298Z,15.23
2019-03-27T20:32:58.054Z,9.73
2019-03-27T20:40:15.644Z,10.10
2019-03-27T20:44:02.507Z,12.93
2019-03-27T20:47:33.894Z,11.60
2019-03-27T20:51:27.838Z,10.70
2019-03-27T20:58:29.085Z,11.80
2019-03-27T21:01:59.796Z,10.80
2019-03-27T21:05:00.420Z,12.97
2019-03-27T21:19:52.059Z,12.60
2019-03-27T21:22:43.261Z,12.30
2019-03-27T21:38:05.658Z,11.60
2019-03-27T21:44:43.216Z,12.60
2019-03-27T21:48:23.069Z,11.47
2019-03-27T21:51:06.944Z,12.00
2019-03-27T21:54:05.049Z,14.90
2019-03-27T22:00:16.203Z,12.03
2019-03-27T22:03:13.019Z,12.20
2019-03-27T22:06:20.138Z,11.60
2019-03-27T22:09:00.357Z,12.37
2019-03-27T22:12:06.240Z,10.70
2019-03-27T22:15:29.337Z,11.10
2019-03-27T22:18:23.945Z,11.87
2019-03-27T22:21:30.656Z,12.40
2019-03-27T22:27:37.490Z,11.13
2019-03-27T22:30:31.163Z,10.83
2019-03-27T22:33:53.050Z,12.40
2019-03-27T22:36:29.822Z,10.83
2019-03-27T22:39:33.721Z,13.00
2019-03-27T22:42:57.395Z,11.00
2019-03-27T22:46:00.043Z,11.85
2019-03-27T22:48:59.551Z,10.53
2019-03-27T22:51:55.530Z,10.47
2019-03-27T22:55:00.422Z,12.13
2019-03-27T22:57:54.193Z,10.60
2019-03-27T23:00:41.790Z,11.00
2019-03-27T23:06:44.223Z,12.07
2019-03-27T23:09:48.599Z,10.40
2019-03-27T23:13:03.688Z,10.37
2019-03-27T23:15:53.804Z,12.13
2019-03-27T23:18:49.330Z,10.23
2019-03-27T23:24:07.249Z,12.33
2019-03-27T23:25:28.403Z,11.50
2019-03-27T23:28:12.638Z,11.03
2019-03-27T23:34:42.920Z,11.17
2019-03-27T23:37:52.238Z,11.17
2019-03-27T23:40:44.203Z,14.70
2019-03-27T23:43:28.210Z,19.37
2019-03-27T23:46:32.204Z,13.20
2019-03-27T23:49:10.684Z,10.40
2019-03-27T23:52:12.253Z,11.83
2019-03-27T23:54:58.199Z,10.90
2019-03-27T23:57:58.102Z,9.77
